createdAt,value
2022-09-10T00:01:05.315Z,97921.03
2022-09-10T00:04:10.773Z,97928.97
2022-09-10T00:07:12.855Z,97929.75
2022-09-10T00:10:14.418Z,97934.25
2022-09-10T00:13:17.382Z,97933.19
2022-09-10T00:16:19.345Z,97933.38
2022-09-10T00:19:22.904Z,97935.13
2022-09-10T00:22:24.539Z,97939.50
2022-09-10T00:25:29.168Z,97937.00
2022-09-10T00:28:30.765Z,97947.53
2022-09-10T00:31:32.930Z,97949.25
2022-09-10T00:34:39.411Z,97959.97
2022-09-10T00:37:41.047Z,97955.38
2022-09-10T00:40:45.837Z,97956.84
2022-09-10T00:43:49.205Z,97963.19
2022-09-10T00:46:51.675Z,97960.50
2022-09-10T00:49:57.681Z,97959.66
2022-09-10T00:53:01.226Z,97968.25
2022-09-10T00:56:05.839Z,97967.59
2022-09-10T00:59:10.088Z,97969.41
2022-09-10T01:02:12.371Z,97975.63
2022-09-10T01:05:17.595Z,97968.47
2022-09-10T01:08:19.904Z,97972.09
2022-09-10T01:11:38.164Z,97964.81
2022-09-10T01:14:49.249Z,97966.53
2022-09-10T01:17:57.805Z,97957.53
2022-09-10T01:21:13.663Z,97957.53
2022-09-10T01:24:35.161Z,97969.97
2022-09-10T01:27:42.873Z,97964.59
2022-09-10T01:30:48.025Z,97965.47
2022-09-10T01:33:54.042Z,97973.63
2022-09-10T01:36:59.498Z,97980.91
2022-09-10T01:40:02.558Z,97967.41
2022-09-10T01:43:07.260Z,97971.03
2022-09-10T01:46:20.951Z,97969.31
2022-09-10T01:49:27.824Z,97965.69
2022-09-10T01:52:35.688Z,97959.47
2022-09-10T01:55:42.496Z,97964.81
2022-09-10T01:58:46.527Z,97963.97
2022-09-10T02:01:50.804Z,97958.50
2022-09-10T02:04:54.294Z,97963.00
2022-09-10T02:07:59.257Z,97963.13
2022-09-10T02:11:09.420Z,97956.66
2022-09-10T02:14:14.291Z,97959.00
2022-09-10T02:17:16.374Z,97963.41
2022-09-10T02:20:19.964Z,97961.69
2022-09-10T02:23:24.681Z,97964.38
2022-09-10T02:26:27.867Z,97959.00
2022-09-10T02:29:31.445Z,97963.53
2022-09-10T02:32:33.099Z,97965.22
2022-09-10T02:35:34.682Z,97959.88
2022-09-10T02:38:36.500Z,97961.69
2022-09-10T02:41:43.413Z,97957.53
2022-09-10T02:44:47.215Z,97949.59
2022-09-10T02:47:49.187Z,97962.03
2022-09-10T02:50:50.853Z,97956.00
2022-09-10T02:53:52.669Z,97953.53
2022-09-10T02:56:54.558Z,97958.06
2022-09-10T02:59:57.697Z,97959.13
2022-09-10T03:03:02.906Z,97958.28
2022-09-10T03:06:05.118Z,97961.06
2022-09-10T03:09:06.837Z,97959.34
2022-09-10T03:12:08.497Z,97960.22
2022-09-10T03:15:12.824Z,97964.72
2022-09-10T03:18:15.750Z,97954.97
2022-09-10T03:21:18.633Z,97963.06
2022-09-10T03:24:25.289Z,97963.94
2022-09-10T03:27:26.942Z,97954.19
2022-09-10T03:30:30.077Z,97955.16
2022-09-10T03:33:32.164Z,97960.50
2022-09-10T03:36:33.949Z,97957.94
2022-09-10T03:39:35.754Z,97964.91
2022-09-10T03:42:37.491Z,97963.00
2022-09-10T03:45:40.522Z,97960.31
2022-09-10T03:48:43.851Z,97958.38
2022-09-10T03:51:45.739Z,97960.09
2022-09-10T03:54:49.350Z,97958.16
2022-09-10T03:57:51.127Z,97960.00
2022-09-10T04:00:54.380Z,97966.09
2022-09-10T04:03:56.844Z,97965.00
2022-09-10T04:06:58.653Z,97973.06
2022-09-10T04:10:00.350Z,97971.22
2022-09-10T04:13:02.145Z,97976.50
2022-09-10T04:16:05.646Z,97975.53
2022-09-10T04:19:07.354Z,97975.53
2022-09-10T04:22:09.239Z,97975.53
2022-09-10T04:25:10.818Z,97981.88
2022-09-10T04:28:12.613Z,97982.81
2022-09-10T04:31:15.885Z,97986.56
2022-09-10T04:34:17.746Z,97979.50
2022-09-10T04:37:19.656Z,97986.78
2022-09-10T04:40:21.303Z,97980.78
2022-09-10T04:43:24.425Z,97981.75
2022-09-10T04:46:27.493Z,97991.59
2022-09-10T04:49:29.889Z,97994.38
2022-09-10T04:52:31.686Z,97992.69
2022-09-10T04:55:33.728Z,97996.44
2022-09-10T04:58:38.706Z,97987.53
2022-09-10T05:01:42.371Z,97988.50
2022-09-10T05:04:44.223Z,97990.53
2022-09-10T05:07:45.819Z,97997.78
2022-09-10T05:10:47.847Z,97988.16
2022-09-10T05:13:49.622Z,97994.25
2022-09-10T05:16:52.767Z,97989.88
2022-09-10T05:19:54.463Z,98000.59
2022-09-10T05:22:56.340Z,97993.50
2022-09-10T05:25:58.289Z,97990.84
2022-09-10T05:29:00.622Z,97991.69
2022-09-10T05:32:04.039Z,97991.59
2022-09-10T05:35:06.356Z,97995.13
2022-09-10T05:38:11.299Z,97987.06
2022-09-10T05:41:13.615Z,97995.91
2022-09-10T05:44:15.333Z,98003.84
2022-09-10T05:47:18.694Z,97999.22
2022-09-10T05:50:20.299Z,97999.00
2022-09-10T05:53:21.981Z,97995.25
2022-09-10T05:56:25.761Z,97995.25
2022-09-10T05:59:27.357Z,97999.56
2022-09-10T06:02:30.586Z,97994.38
2022-09-10T06:05:32.409Z,97985.59
2022-09-10T06:08:35.598Z,97991.06
2022-09-10T06:11:38.734Z,97993.63
2022-09-10T06:14:40.398Z,97987.13
2022-09-10T06:17:43.406Z,97992.91
2022-09-10T06:20:45.205Z,97990.84
2022-09-10T06:23:47.137Z,97995.81
2022-09-10T06:26:49.136Z,97995.28
2022-09-10T06:29:51.423Z,97997.84
2022-09-10T06:32:54.615Z,97987.75
2022-09-10T06:35:56.729Z,97995.19
2022-09-10T06:38:58.450Z,97996.88
2022-09-10T06:42:00.455Z,97988.63
2022-09-10T06:45:02.136Z,98002.69
2022-09-10T06:51:26.910Z,97992.03
2022-09-10T06:54:28.550Z,97993.97
2022-09-10T06:57:30.342Z,97993.69
2022-09-10T07:00:32.597Z,97996.25
2022-09-10T07:03:36.273Z,98002.34
2022-09-10T07:06:38.495Z,97998.81
2022-09-10T07:09:40.135Z,98000.19
2022-09-10T07:12:41.619Z,98002.13
2022-09-10T07:15:45.412Z,98012.44
2022-09-10T07:18:50.304Z,98009.44
2022-09-10T07:21:52.149Z,98012.94
2022-09-10T07:24:54.461Z,98013.16
2022-09-10T07:27:56.113Z,98021.09
2022-09-10T07:30:58.321Z,98020.88
2022-09-10T07:34:03.060Z,98021.72
2022-09-10T07:37:05.601Z,98028.69
2022-09-10T07:40:07.913Z,98039.44
2022-09-10T07:43:09.593Z,98033.09
2022-09-10T07:46:12.727Z,98044.38
2022-09-10T07:49:15.566Z,98035.59
2022-09-10T07:52:18.747Z,98046.31
2022-09-10T07:55:20.753Z,98041.59
2022-09-10T07:58:22.429Z,98044.38
2022-09-10T08:01:24.072Z,98048.78
2022-09-10T08:04:33.440Z,98047.81
2022-09-10T08:07:38.081Z,98051.25
2022-09-10T08:10:39.803Z,98052.56
2022-09-10T08:13:42.343Z,98060.22
2022-09-10T08:16:44.698Z,98055.41
2022-09-10T08:19:49.212Z,98056.75
2022-09-10T08:22:50.760Z,98069.13
2022-09-10T08:25:57.609Z,98064.25
2022-09-10T08:28:59.308Z,98071.47
2022-09-10T08:32:01.181Z,98070.50
2022-09-10T08:35:05.031Z,98070.84
2022-09-10T08:38:06.663Z,98070.97
2022-09-10T08:41:11.348Z,98076.84
2022-09-10T08:44:17.693Z,98078.97
2022-09-10T08:47:22.493Z,98080.56
2022-09-10T08:50:28.975Z,98084.72
2022-09-10T08:53:38.333Z,98089.03
2022-09-10T08:56:40.930Z,98096.88
2022-09-10T08:59:44.677Z,98089.31
2022-09-10T09:02:52.756Z,98091.03
2022-09-10T09:05:58.245Z,98088.25
2022-09-10T09:09:01.262Z,98088.00
2022-09-10T09:12:06.100Z,98087.03
2022-09-10T09:15:11.004Z,98090.72
2022-09-10T09:18:18.104Z,98093.84
2022-09-10T09:21:24.795Z,98101.63
2022-09-10T09:24:29.334Z,98100.34
2022-09-10T09:27:34.216Z,98099.06
2022-09-10T09:30:37.896Z,98101.69
2022-09-10T09:33:40.641Z,98093.22
2022-09-10T09:36:51.028Z,98108.41
2022-09-10T09:40:04.253Z,98102.84
2022-09-10T09:43:13.505Z,98105.16
2022-09-10T09:46:17.080Z,98101.00
2022-09-10T09:49:18.843Z,98107.63
2022-09-10T09:52:22.955Z,98106.91
2022-09-10T09:55:28.932Z,98108.84
2022-09-10T09:58:32.654Z,98109.47
2022-09-10T10:01:37.399Z,98102.38
2022-09-10T10:04:42.344Z,98099.47
2022-09-10T10:07:48.246Z,98099.97
2022-09-10T10:10:52.231Z,98103.28
2022-09-10T10:13:56.838Z,98097.44
2022-09-10T10:17:00.877Z,98090.41
2022-09-10T10:20:05.610Z,98086.91
2022-09-10T10:23:31.078Z,98090.53
2022-09-10T10:26:33.787Z,98093.75
2022-09-10T10:29:35.612Z,98091.38
2022-09-10T10:32:42.507Z,98082.81
2022-09-10T10:35:46.913Z,98081.31
2022-09-10T10:38:52.870Z,98087.91
2022-09-10T10:42:04.449Z,98084.13
2022-09-10T10:45:17.509Z,98089.63
2022-09-10T10:48:26.531Z,98086.91
2022-09-10T10:51:33.439Z,98081.88
2022-09-10T10:54:42.714Z,98085.88
2022-09-10T10:57:53.739Z,98085.75
2022-09-10T11:00:58.240Z,98080.81
2022-09-10T11:04:04.164Z,98082.47
2022-09-10T11:07:10.104Z,98084.94
2022-09-10T11:10:16.447Z,98083.81
2022-09-10T11:13:19.829Z,98077.94
2022-09-10T11:16:24.199Z,98077.75
2022-09-10T11:19:35.785Z,98070.88
2022-09-10T11:22:40.813Z,98070.53
2022-09-10T11:25:54.369Z,98071.00
2022-09-10T11:28:59.561Z,98074.63
2022-09-10T11:32:04.830Z,98065.41
2022-09-10T11:35:11.603Z,98074.44
2022-09-10T11:38:20.542Z,98073.25
2022-09-10T11:41:24.734Z,98076.31
2022-09-10T11:44:42.957Z,98074.28
2022-09-10T11:47:47.941Z,98078.66
2022-09-10T11:50:52.796Z,98086.75
2022-09-10T11:53:54.960Z,98073.53
2022-09-10T11:57:01.220Z,98065.69
2022-09-10T12:00:10.096Z,98067.16
2022-09-10T12:03:27.219Z,98072.56
2022-09-10T12:06:33.561Z,98064.69
2022-09-10T12:09:40.546Z,98080.22
2022-09-10T12:12:44.485Z,98075.84
2022-09-10T12:15:50.859Z,98078.66
2022-09-10T12:18:55.069Z,98073.13
2022-09-10T12:21:58.834Z,98071.31
2022-09-10T12:25:02.243Z,98081.59
2022-09-10T12:28:25.255Z,98077.94
2022-09-10T12:31:27.887Z,98083.19
2022-09-10T12:34:29.661Z,98077.44
2022-09-10T12:37:34.105Z,98072.78
2022-09-10T12:40:49.949Z,98082.63
2022-09-10T12:43:57.136Z,98079.91
2022-09-10T12:47:13.664Z,98078.66
2022-09-10T12:50:21.552Z,98077.22
2022-09-10T12:53:44.608Z,98079.81
2022-09-10T12:57:08.726Z,98076.63
2022-09-10T13:00:19.725Z,98072.59
2022-09-10T13:03:22.724Z,98068.91
2022-09-10T13:06:34.895Z,98061.44
2022-09-10T13:09:38.674Z,98063.28
2022-09-10T13:12:41.998Z,98061.69
2022-09-10T13:15:49.781Z,98065.00
2022-09-10T13:18:56.355Z,98071.13
2022-09-10T13:21:58.825Z,98060.97
2022-09-10T13:25:02.375Z,98071.38
2022-09-10T13:28:25.175Z,98068.41
2022-09-10T13:31:31.632Z,98068.53
2022-09-10T13:34:57.180Z,98068.66
2022-09-10T13:38:09.119Z,98072.34
2022-09-10T13:41:18.958Z,98070.75
2022-09-10T13:44:27.942Z,98073.44
2022-09-10T13:47:33.703Z,98061.94
2022-09-10T13:50:38.149Z,98071.75
2022-09-10T13:53:42.070Z,98076.16
2022-09-10T13:56:45.882Z,98078.59
2022-09-10T13:59:49.068Z,98077.47
2022-09-10T14:02:53.650Z,98076.75
2022-09-10T14:05:57.519Z,98076.63
2022-09-10T14:09:06.273Z,98077.75
2022-09-10T14:12:08.691Z,98073.34
2022-09-10T14:15:17.480Z,98082.53
2022-09-10T14:18:21.488Z,98081.03
2022-09-10T14:21:27.129Z,98080.69
2022-09-10T14:24:30.656Z,98076.63
2022-09-10T14:27:33.748Z,98078.59
2022-09-10T14:30:36.089Z,98075.75
2022-09-10T14:33:39.818Z,98069.06
2022-09-10T14:36:41.511Z,98066.50
2022-09-10T14:39:44.222Z,98065.72
2022-09-10T14:42:46.752Z,98068.78
2022-09-10T14:45:49.916Z,98065.50
2022-09-10T14:49:07.545Z,98069.91
2022-09-10T14:52:10.776Z,98064.88
2022-09-10T14:55:12.958Z,98065.38
2022-09-10T14:58:14.547Z,98069.19
2022-09-10T15:01:16.273Z,98069.91
2022-09-10T15:04:24.275Z,98068.06
2022-09-10T15:07:27.689Z,98065.84
2022-09-10T15:10:29.304Z,98065.63
2022-09-10T15:13:32.358Z,98061.94
2022-09-10T15:16:35.357Z,98066.00
2022-09-10T15:19:38.469Z,98068.44
2022-09-10T15:22:40.382Z,98060.84
2022-09-10T15:25:48.284Z,98063.78
2022-09-10T15:28:50.026Z,98066.50
2022-09-10T15:31:51.862Z,98066.63
2022-09-10T15:34:55.210Z,98065.00
2022-09-10T15:37:57.774Z,98075.91
2022-09-10T15:41:06.991Z,98064.78
2022-09-10T15:44:08.929Z,98068.69
2022-09-10T15:47:10.711Z,98065.72
2022-09-10T15:50:15.982Z,98065.00
2022-09-10T15:53:17.839Z,98069.19
2022-09-10T15:56:20.763Z,98070.88
2022-09-10T15:59:23.594Z,98080.28
2022-09-10T16:02:26.697Z,98076.97
2022-09-10T16:05:30.993Z,98069.88
2022-09-10T16:08:32.979Z,98077.22
2022-09-10T16:11:36.374Z,98086.25
2022-09-10T16:14:38.046Z,98078.09
2022-09-10T16:17:41.033Z,98086.25
2022-09-10T16:20:44.303Z,98090.78
2022-09-10T16:23:46.933Z,98092.50
2022-09-10T16:26:49.599Z,98096.06
2022-09-10T16:29:51.442Z,98092.50
2022-09-10T16:32:55.159Z,98093.59
2022-09-10T16:36:03.178Z,98092.75
2022-09-10T16:39:07.208Z,98092.00
2022-09-10T16:42:11.802Z,98098.50
2022-09-10T16:45:15.459Z,98102.16
2022-09-10T16:48:17.478Z,98093.22
2022-09-10T16:51:23.569Z,98096.00
2022-09-10T16:54:27.787Z,98106.91
2022-09-10T16:57:30.228Z,98104.34
2022-09-10T17:00:32.173Z,98105.69
2022-09-10T17:03:34.118Z,98110.28
2022-09-10T17:06:37.255Z,98104.06
2022-09-10T17:09:38.805Z,98096.84
2022-09-10T17:12:40.671Z,98093.53
2022-09-10T17:15:43.273Z,98103.56
2022-09-10T17:18:45.184Z,98106.38
2022-09-10T17:21:51.395Z,98104.78
2022-09-10T17:24:53.973Z,98113.84
2022-09-10T17:27:59.465Z,98107.78
2022-09-10T17:31:01.296Z,98115.22
2022-09-10T17:34:03.810Z,98112.00
2022-09-10T17:37:06.814Z,98115.06
2022-09-10T17:40:08.926Z,98120.03
2022-09-10T17:43:10.612Z,98119.31
2022-09-10T17:46:15.265Z,98126.28
2022-09-10T17:49:17.248Z,98123.69
2022-09-10T17:52:21.977Z,98124.69
2022-09-10T17:55:24.673Z,98123.19
2022-09-10T17:58:27.734Z,98132.44
2022-09-10T18:01:30.679Z,98134.41
2022-09-10T18:04:34.702Z,98140.53
2022-09-10T18:07:37.854Z,98151.75
2022-09-10T18:10:39.566Z,98156.38
2022-09-10T18:13:41.184Z,98156.59
2022-09-10T18:16:42.910Z,98163.69
2022-09-10T18:19:44.594Z,98166.38
2022-09-10T18:22:47.691Z,98172.50
2022-09-10T18:25:50.078Z,98178.63
2022-09-10T18:28:52.983Z,98173.25
2022-09-10T18:31:56.057Z,98177.13
2022-09-10T18:34:57.830Z,98186.28
2022-09-10T18:38:03.151Z,98193.59
2022-09-10T18:41:05.016Z,98189.09
2022-09-10T18:44:08.093Z,98191.88
2022-09-10T18:47:27.857Z,98194.47
2022-09-10T18:50:32.799Z,98201.56
2022-09-10T18:53:36.087Z,98194.69
2022-09-10T18:56:37.920Z,98200.94
2022-09-10T18:59:39.527Z,98203.72
2022-09-10T19:02:41.340Z,98203.84
2022-09-10T19:05:43.295Z,98205.88
2022-09-10T19:08:50.526Z,98204.91
2022-09-10T19:11:54.126Z,98212.34
2022-09-10T19:14:55.689Z,98213.66
2022-09-10T19:17:57.297Z,98215.56
2022-09-10T19:21:02.455Z,98220.19
2022-09-10T19:24:06.814Z,98226.56
2022-09-10T19:27:08.391Z,98215.69
2022-09-10T19:30:10.814Z,98227.28
2022-09-10T19:33:12.832Z,98230.22
2022-09-10T19:36:16.468Z,98231.81
2022-09-10T19:39:19.443Z,98236.22
2022-09-10T19:42:21.194Z,98229.88
2022-09-10T19:45:27.371Z,98236.03
2022-09-10T19:48:29.267Z,98242.25
2022-09-10T19:51:32.371Z,98244.16
2022-09-10T19:54:39.954Z,98246.00
2022-09-10T19:57:41.726Z,98252.22
2022-09-10T20:00:47.082Z,98250.50
2022-09-10T20:03:50.612Z,98256.00
2022-09-10T20:06:52.438Z,98258.81
2022-09-10T20:09:55.789Z,98259.78
2022-09-10T20:12:57.511Z,98263.31
2022-09-10T20:15:59.875Z,98252.69
2022-09-10T20:19:02.857Z,98250.09
2022-09-10T20:22:04.780Z,98253.66
2022-09-10T20:25:08.089Z,98257.09
2022-09-10T20:28:09.574Z,98256.34
2022-09-10T20:31:12.410Z,98255.59
2022-09-10T20:34:14.997Z,98257.31
2022-09-10T20:37:16.989Z,98256.34
2022-09-10T20:40:20.385Z,98259.03
2022-09-10T20:43:21.915Z,98264.41
2022-09-10T20:46:23.732Z,98257.31
2022-09-10T20:49:25.611Z,98268.06
2022-09-10T20:52:27.273Z,98267.28
2022-09-10T20:55:30.515Z,98277.41
2022-09-10T20:58:34.368Z,98269.44
2022-09-10T21:01:36.217Z,98264.06
2022-09-10T21:04:39.778Z,98281.06
2022-09-10T21:07:41.480Z,98275.78
2022-09-10T21:10:44.605Z,98269.44
2022-09-10T21:13:47.101Z,98275.78
2022-09-10T21:16:48.654Z,98274.06
2022-09-10T21:19:51.630Z,98276.09
2022-09-10T21:22:53.201Z,98279.69
2022-09-10T21:25:56.250Z,98285.13
2022-09-10T21:28:58.870Z,98292.34
2022-09-10T21:32:00.551Z,98296.00
2022-09-10T21:35:02.115Z,98291.69
2022-09-10T21:38:03.860Z,98288.16
2022-09-10T21:41:12.417Z,98273.84
2022-09-10T21:44:15.064Z,98272.88
2022-09-10T21:47:16.867Z,98264.31
2022-09-10T21:50:18.560Z,98283.97
2022-09-10T21:53:20.808Z,98276.88
2022-09-10T21:56:24.982Z,98284.16
2022-09-10T21:59:26.808Z,98290.63
2022-09-10T22:02:30.676Z,98288.25
2022-09-10T22:05:32.466Z,98290.38
2022-09-10T22:08:34.124Z,98299.41
2022-09-10T22:11:38.555Z,98309.50
2022-09-10T22:14:44.206Z,98309.63
2022-09-10T22:17:45.750Z,98315.94
2022-09-10T22:20:47.314Z,98314.19
2022-09-10T22:23:51.659Z,98319.88
2022-09-10T22:26:54.769Z,98319.22
2022-09-10T22:29:56.871Z,98309.63
2022-09-10T22:32:58.737Z,98317.69
2022-09-10T22:36:08.045Z,98318.66
2022-09-10T22:39:12.112Z,98323.19
2022-09-10T22:42:15.314Z,98320.38
2022-09-10T22:45:17.801Z,98326.59
2022-09-10T22:48:19.502Z,98330.16
2022-09-10T22:51:23.226Z,98335.53
2022-09-10T22:54:24.857Z,98339.97
2022-09-10T22:57:28.684Z,98336.31
2022-09-10T23:00:30.320Z,98346.19
2022-09-10T23:03:32.634Z,98348.94
2022-09-10T23:06:37.533Z,98352.50
2022-09-10T23:09:39.155Z,98358.81
2022-09-10T23:12:45.094Z,98355.41
2022-09-10T23:15:47.073Z,98356.25
2022-09-10T23:18:50.700Z,98368.94
2022-09-10T23:21:54.022Z,98370.75
2022-09-10T23:24:55.727Z,98380.63
2022-09-10T23:27:58.990Z,98375.25
2022-09-10T23:31:14.471Z,98368.28
2022-09-10T23:34:17.072Z,98368.66
2022-09-10T23:37:19.773Z,98374.34
2022-09-10T23:40:27.212Z,98377.22
2022-09-10T23:43:32.475Z,98373.13
2022-09-10T23:46:34.555Z,98378.41
2022-09-10T23:49:36.241Z,98380.44
2022-09-10T23:52:37.737Z,98374.47
2022-09-10T23:55:40.202Z,98372.88
2022-09-10T23:58:43.302Z,98373.63
